createdAt,value
2019-05-21T00:00:31.806Z,0.00
2019-05-21T00:01:31.787Z,0.00
2019-05-21T00:02:31.790Z,0.00
2019-05-21T00:03:31.762Z,0.00
2019-05-21T00:04:31.726Z,0.00
2019-05-21T00:05:31.695Z,0.00
2019-05-21T00:06:31.671Z,0.00
2019-05-21T00:07:31.669Z,0.00
2019-05-21T00:08:31.664Z,0.00
2019-05-21T00:09:31.605Z,0.00
2019-05-21T00:10:31.593Z,0.00
2019-05-21T00:11:31.577Z,0.00
2019-05-21T00:12:31.549Z,0.00
2019-05-21T00:13:31.531Z,0.00
2019-05-21T00:14:31.524Z,0.00
2019-05-21T00:15:31.519Z,0.00
2019-05-21T00:16:31.464Z,0.00
2019-05-21T00:17:31.483Z,0.00
2019-05-21T00:18:31.426Z,0.00
2019-05-21T00:19:31.396Z,0.00
2019-05-21T00:20:31.372Z,0.00
2019-05-21T00:21:31.360Z,0.00
2019-05-21T00:22:31.371Z,0.00
2019-05-21T00:23:31.312Z,0.00
2019-05-21T00:24:31.297Z,0.00
2019-05-21T00:25:31.273Z,0.00
2019-05-21T00:26:31.267Z,0.00
2019-05-21T00:27:31.233Z,0.00
2019-05-21T00:28:31.209Z,0.00
2019-05-21T00:29:31.187Z,0.00
2019-05-21T00:30:31.161Z,0.00
2019-05-21T00:31:31.153Z,0.00
2019-05-21T00:32:31.121Z,0.00
2019-05-21T00:33:31.096Z,0.00
2019-05-21T00:34:43.146Z,0.00
2019-05-21T00:35:31.077Z,0.00
2019-05-21T00:36:31.036Z,0.00
2019-05-21T00:37:31.012Z,0.00
2019-05-21T00:38:31.012Z,0.00
2019-05-21T00:39:30.987Z,0.00
2019-05-21T00:40:30.947Z,0.00
2019-05-21T00:41:30.920Z,0.00
2019-05-21T00:42:30.903Z,0.00
2019-05-21T00:43:30.875Z,0.00
2019-05-21T00:44:30.893Z,0.00
2019-05-21T00:45:30.835Z,0.00
2019-05-21T00:46:30.843Z,0.00
2019-05-21T00:47:30.792Z,0.00
2019-05-21T00:48:30.767Z,0.00
2019-05-21T00:49:30.782Z,0.00
2019-05-21T00:50:30.756Z,0.00
2019-05-21T00:51:30.710Z,0.00
2019-05-21T00:52:30.688Z,0.00
2019-05-21T00:53:30.661Z,0.00
2019-05-21T00:54:30.661Z,0.00
2019-05-21T00:55:30.619Z,0.00
2019-05-21T00:56:30.625Z,0.00
2019-05-21T00:57:30.578Z,0.00
2019-05-21T00:58:30.592Z,0.00
2019-05-21T00:59:30.535Z,0.00
2019-05-21T01:00:30.508Z,0.00
2019-05-21T01:01:30.484Z,0.00
2019-05-21T01:02:30.468Z,0.00
2019-05-21T01:03:30.440Z,0.00
2019-05-21T01:04:30.435Z,0.00
2019-05-21T01:05:30.431Z,0.00
2019-05-21T01:06:30.405Z,0.00
2019-05-21T01:07:30.358Z,0.00
2019-05-21T01:08:30.335Z,0.00
2019-05-21T01:09:30.308Z,0.00
2019-05-21T01:10:30.291Z,0.00
2019-05-21T01:11:30.264Z,0.00
2019-05-21T01:12:30.248Z,0.00
2019-05-21T01:13:30.228Z,0.00
2019-05-21T01:14:30.205Z,0.00
2019-05-21T01:15:30.191Z,0.00
2019-05-21T01:16:30.158Z,0.00
2019-05-21T01:17:30.134Z,0.00
2019-05-21T01:18:30.149Z,0.00
2019-05-21T01:19:30.122Z,0.00
2019-05-21T01:20:30.123Z,0.00
2019-05-21T01:21:30.066Z,0.00
2019-05-21T01:22:30.038Z,0.00
2019-05-21T01:23:30.057Z,0.00
2019-05-21T01:24:29.985Z,0.00
2019-05-21T01:25:29.960Z,0.00
2019-05-21T01:26:29.990Z,0.00
2019-05-21T01:27:29.945Z,0.00
2019-05-21T01:28:29.969Z,0.00
2019-05-21T01:29:29.887Z,0.00
2019-05-21T01:30:29.858Z,0.00
2019-05-21T01:31:29.862Z,0.00
2019-05-21T01:32:29.813Z,0.00
2019-05-21T01:33:29.800Z,0.00
2019-05-21T01:34:29.790Z,0.00
2019-05-21T01:35:29.747Z,0.00
2019-05-21T01:36:29.760Z,0.00
2019-05-21T01:37:29.700Z,0.00
2019-05-21T01:38:29.683Z,0.00
2019-05-21T01:39:29.671Z,0.00
2019-05-21T01:40:29.659Z,0.00
2019-05-21T01:41:29.649Z,0.00
2019-05-21T01:42:29.598Z,0.00
2019-05-21T01:43:29.581Z,0.00
2019-05-21T01:44:29.559Z,0.00
2019-05-21T01:45:29.532Z,0.00
2019-05-21T01:46:29.504Z,0.00
2019-05-21T01:47:29.493Z,0.00
2019-05-21T01:48:29.460Z,0.00
2019-05-21T01:49:29.452Z,0.00
2019-05-21T01:50:29.474Z,0.00
2019-05-21T01:51:29.420Z,0.00
2019-05-21T01:52:29.373Z,0.00
2019-05-21T01:53:29.352Z,0.00
2019-05-21T01:54:29.331Z,0.00
2019-05-21T01:55:29.331Z,0.00
2019-05-21T01:56:29.303Z,0.00
2019-05-21T01:57:29.265Z,0.00
2019-05-21T01:58:29.250Z,0.00
2019-05-21T01:59:29.228Z,0.00
2019-05-21T02:00:29.209Z,0.00
2019-05-21T02:01:29.184Z,0.00
2019-05-21T02:02:29.159Z,0.00
2019-05-21T02:03:29.145Z,0.00
2019-05-21T02:04:29.116Z,0.00
2019-05-21T02:05:32.936Z,0.00
2019-05-21T02:06:29.072Z,0.00
2019-05-21T02:07:29.047Z,0.00
2019-05-21T02:08:29.030Z,0.00
2019-05-21T02:09:29.018Z,0.00
2019-05-21T02:10:29.007Z,0.00
2019-05-21T02:11:28.958Z,0.00
2019-05-21T02:12:28.946Z,0.00
2019-05-21T02:13:28.914Z,0.00
2019-05-21T02:14:28.895Z,0.00
2019-05-21T02:15:28.873Z,0.00
2019-05-21T02:16:28.866Z,0.00
2019-05-21T02:17:28.838Z,0.00
2019-05-21T02:18:28.813Z,0.00
2019-05-21T02:19:28.790Z,0.00
2019-05-21T02:20:28.763Z,0.00
2019-05-21T02:21:28.750Z,0.00
2019-05-21T02:22:28.723Z,0.00
2019-05-21T02:23:28.707Z,0.00
2019-05-21T02:24:28.698Z,0.00
2019-05-21T02:25:28.661Z,0.00
2019-05-21T02:26:28.632Z,0.00
2019-05-21T02:27:28.624Z,0.00
2019-05-21T02:28:28.597Z,0.00
2019-05-21T02:29:28.572Z,0.00
2019-05-21T02:30:28.562Z,0.00
2019-05-21T02:31:28.528Z,0.00
2019-05-21T02:32:28.512Z,0.00
2019-05-21T02:33:28.482Z,0.00
2019-05-21T02:34:28.467Z,0.00
2019-05-21T02:35:28.442Z,0.00
2019-05-21T02:36:28.429Z,0.00
2019-05-21T02:37:28.426Z,0.00
2019-05-21T02:38:28.378Z,0.00
2019-05-21T02:39:37.035Z,0.00
2019-05-21T02:41:22.249Z,0.00
2019-05-21T02:42:22.208Z,0.00
2019-05-21T02:44:15.091Z,0.00
2019-05-21T02:45:15.048Z,0.00
2019-05-21T02:46:15.028Z,0.00
2019-05-21T02:47:15.001Z,0.00
2019-05-21T02:48:14.983Z,0.00
2019-05-21T02:49:14.958Z,0.00
2019-05-21T02:50:14.933Z,0.00
2019-05-21T02:51:14.914Z,0.00
2019-05-21T02:52:14.896Z,0.00
2019-05-21T02:53:14.870Z,0.00
2019-05-21T02:54:14.849Z,0.00
2019-05-21T02:55:14.826Z,0.00
2019-05-21T02:56:14.807Z,0.00
2019-05-21T02:57:14.784Z,0.00
2019-05-21T02:58:14.765Z,0.00
2019-05-21T02:59:14.741Z,0.00
2019-05-21T03:00:14.719Z,0.00
2019-05-21T03:01:17.664Z,0.00
2019-05-21T03:02:14.679Z,0.00
2019-05-21T03:03:14.651Z,0.00
2019-05-21T03:04:14.637Z,0.00
2019-05-21T03:05:14.600Z,0.00
2019-05-21T03:06:15.084Z,0.00
2019-05-21T03:07:14.564Z,0.00
2019-05-21T03:08:14.545Z,0.00
2019-05-21T03:09:14.520Z,0.00
2019-05-21T03:10:14.499Z,0.00
2019-05-21T03:11:14.478Z,0.00
2019-05-21T03:12:14.456Z,0.00
2019-05-21T03:13:14.435Z,0.00
2019-05-21T03:14:14.415Z,0.00
2019-05-21T03:15:14.391Z,0.00
2019-05-21T03:16:14.375Z,0.00
2019-05-21T03:17:14.359Z,0.00
2019-05-21T03:18:14.330Z,0.00
2019-05-21T03:19:16.675Z,5.63
2019-05-21T03:20:14.286Z,5.63
2019-05-21T03:21:14.260Z,5.63
2019-05-21T03:22:14.240Z,5.63
2019-05-21T03:23:14.220Z,5.63
2019-05-21T03:24:14.195Z,5.63
2019-05-21T03:25:14.176Z,5.63
2019-05-21T03:26:14.157Z,5.63
2019-05-21T03:27:14.134Z,5.63
2019-05-21T03:28:14.109Z,5.63
2019-05-21T03:29:14.083Z,11.25
2019-05-21T03:30:14.083Z,11.25
2019-05-21T03:31:14.048Z,11.25
2019-05-21T03:32:14.029Z,11.25
2019-05-21T03:33:14.013Z,16.88
2019-05-21T03:34:13.975Z,16.88
2019-05-21T03:35:13.962Z,11.25
2019-05-21T03:36:29.692Z,16.88
2019-05-21T03:37:13.911Z,16.88
2019-05-21T03:38:13.888Z,16.88
2019-05-21T03:39:13.871Z,22.50
2019-05-21T03:40:13.851Z,22.50
2019-05-21T03:41:13.832Z,22.50
2019-05-21T03:42:13.807Z,22.50
2019-05-21T03:43:13.783Z,22.50
2019-05-21T03:44:13.762Z,22.50
2019-05-21T03:45:13.742Z,22.50
2019-05-21T03:46:13.722Z,28.13
2019-05-21T03:47:13.694Z,28.13
2019-05-21T03:48:13.673Z,28.13
2019-05-21T03:49:13.657Z,33.75
2019-05-21T03:50:13.710Z,33.75
2019-05-21T03:51:13.608Z,33.75
2019-05-21T03:52:13.586Z,33.75
2019-05-21T03:53:13.569Z,33.75
2019-05-21T03:54:13.560Z,39.38
2019-05-21T03:55:13.521Z,39.38
2019-05-21T03:56:13.531Z,33.75
2019-05-21T03:57:13.480Z,33.75
2019-05-21T03:58:13.459Z,33.75
2019-05-21T03:59:13.433Z,33.75
2019-05-21T04:00:13.416Z,39.38
2019-05-21T04:01:13.393Z,50.63
2019-05-21T04:02:13.384Z,56.25
2019-05-21T04:03:13.347Z,50.63
2019-05-21T04:04:13.329Z,45.00
2019-05-21T04:05:13.307Z,50.63
2019-05-21T04:06:13.287Z,50.63
2019-05-21T04:07:13.267Z,50.63
2019-05-21T04:08:13.241Z,50.63
2019-05-21T04:09:13.217Z,50.63
2019-05-21T04:10:13.198Z,56.25
2019-05-21T04:11:13.177Z,61.88
2019-05-21T04:12:13.155Z,67.50
2019-05-21T04:13:13.134Z,73.13
2019-05-21T04:14:13.115Z,84.38
2019-05-21T04:15:13.092Z,90.00
2019-05-21T04:16:13.072Z,90.00
2019-05-21T04:17:13.045Z,84.38
2019-05-21T04:18:13.029Z,78.75
2019-05-21T04:19:13.003Z,78.75
2019-05-21T04:20:12.983Z,95.63
2019-05-21T04:21:12.969Z,106.88
2019-05-21T04:22:12.947Z,112.50
2019-05-21T04:23:12.922Z,112.50
2019-05-21T04:24:12.897Z,112.50
2019-05-21T04:25:12.874Z,118.13
2019-05-21T04:26:12.854Z,129.38
2019-05-21T04:27:12.836Z,135.00
2019-05-21T04:28:12.814Z,140.63
2019-05-21T04:29:12.795Z,146.25
2019-05-21T04:30:12.814Z,140.63
2019-05-21T04:31:12.752Z,135.00
2019-05-21T04:32:12.728Z,135.00
2019-05-21T04:33:12.732Z,146.25
2019-05-21T04:34:12.685Z,163.13
2019-05-21T04:35:12.667Z,191.25
2019-05-21T04:36:13.621Z,230.63
2019-05-21T04:37:17.070Z,275.63
2019-05-21T04:38:12.612Z,315.00
2019-05-21T04:39:12.597Z,331.88
2019-05-21T04:40:12.585Z,331.88
2019-05-21T04:41:12.537Z,337.50
2019-05-21T04:42:12.519Z,343.13
2019-05-21T04:43:12.540Z,371.25
2019-05-21T04:44:12.485Z,410.63
2019-05-21T04:45:12.453Z,433.13
2019-05-21T04:46:12.434Z,421.88
2019-05-21T04:47:12.414Z,416.25
2019-05-21T04:48:12.397Z,421.88
2019-05-21T04:49:12.373Z,444.38
2019-05-21T04:50:12.357Z,444.38
2019-05-21T04:51:13.929Z,416.25
2019-05-21T04:52:12.312Z,393.75
2019-05-21T04:53:12.291Z,371.25
2019-05-21T04:54:12.273Z,354.38
2019-05-21T04:55:12.250Z,354.38
2019-05-21T04:56:12.229Z,348.75
2019-05-21T04:57:12.210Z,337.50
2019-05-21T04:58:12.201Z,326.25
2019-05-21T04:59:12.168Z,309.38
2019-05-21T05:00:12.150Z,303.75
2019-05-21T05:01:12.134Z,303.75
2019-05-21T05:02:12.115Z,309.38
2019-05-21T05:03:12.086Z,315.00
2019-05-21T05:04:12.071Z,337.50
2019-05-21T05:05:12.053Z,376.88
2019-05-21T05:06:12.035Z,405.00
2019-05-21T05:07:26.932Z,427.50
2019-05-21T05:08:12.013Z,461.25
2019-05-21T05:09:11.967Z,489.38
2019-05-21T05:10:11.948Z,511.88
2019-05-21T05:11:11.929Z,545.63
2019-05-21T05:12:11.910Z,545.63
2019-05-21T05:13:11.889Z,534.38
2019-05-21T05:14:11.858Z,523.13
2019-05-21T05:15:11.852Z,528.75
2019-05-21T05:16:11.832Z,540.00
2019-05-21T05:17:11.812Z,534.38
2019-05-21T05:18:11.788Z,489.38
2019-05-21T05:19:11.770Z,433.13
2019-05-21T05:20:11.752Z,382.50
2019-05-21T05:21:11.737Z,354.38
2019-05-21T05:22:11.711Z,331.88
2019-05-21T05:23:11.693Z,298.13
2019-05-21T05:24:11.673Z,275.63
2019-05-21T05:25:11.652Z,270.00
2019-05-21T05:26:11.636Z,270.00
2019-05-21T05:27:11.625Z,281.25
2019-05-21T05:28:11.601Z,281.25
2019-05-21T05:29:11.573Z,281.25
2019-05-21T05:30:11.549Z,286.88
2019-05-21T05:31:15.093Z,298.13
2019-05-21T05:32:11.515Z,315.00
2019-05-21T05:33:11.498Z,315.00
2019-05-21T05:34:11.475Z,320.63
2019-05-21T05:35:11.555Z,326.25
2019-05-21T05:36:11.443Z,337.50
2019-05-21T05:37:11.413Z,337.50
2019-05-21T05:38:11.394Z,326.25
2019-05-21T05:39:11.375Z,309.38
2019-05-21T05:40:11.359Z,281.25
2019-05-21T05:41:11.335Z,219.38
2019-05-21T05:42:11.338Z,168.75
2019-05-21T05:43:11.298Z,135.00
2019-05-21T05:44:11.275Z,129.38
2019-05-21T05:45:11.250Z,146.25
2019-05-21T05:46:11.233Z,168.75
2019-05-21T05:47:11.213Z,180.00
2019-05-21T05:48:11.194Z,185.63
2019-05-21T05:49:11.178Z,191.25
2019-05-21T05:50:11.154Z,174.38
2019-05-21T05:51:11.128Z,168.75
2019-05-21T05:52:11.115Z,151.88
2019-05-21T05:53:11.096Z,146.25
2019-05-21T05:54:11.074Z,146.25
2019-05-21T05:55:11.059Z,146.25
2019-05-21T05:56:11.041Z,146.25
2019-05-21T05:57:11.007Z,151.88
2019-05-21T05:58:10.995Z,151.88
2019-05-21T05:59:14.063Z,151.88
2019-05-21T06:00:10.954Z,163.13
2019-05-21T06:01:10.923Z,168.75
2019-05-21T06:02:18.075Z,174.38
2019-05-21T06:04:11.961Z,174.38
2019-05-21T06:05:03.753Z,174.38
2019-05-21T06:06:56.838Z,174.38
2019-05-21T06:08:03.966Z,185.63
2019-05-21T06:09:49.672Z,213.75
2019-05-21T06:10:49.636Z,219.38
2019-05-21T06:11:49.615Z,236.25
2019-05-21T06:12:49.595Z,253.13
2019-05-21T06:13:49.577Z,275.63
2019-05-21T06:14:49.555Z,286.88
2019-05-21T06:15:49.536Z,303.75
2019-05-21T06:16:49.515Z,337.50
2019-05-21T06:17:49.491Z,382.50
2019-05-21T06:18:49.475Z,416.25
2019-05-21T06:19:49.454Z,450.00
2019-05-21T06:20:49.436Z,450.00
2019-05-21T06:21:49.417Z,483.75
2019-05-21T06:22:49.394Z,551.25
2019-05-21T06:23:49.371Z,585.00
2019-05-21T06:24:49.353Z,601.88
2019-05-21T06:25:49.333Z,579.38
2019-05-21T06:26:49.309Z,551.25
2019-05-21T06:27:49.292Z,618.75
2019-05-21T06:28:49.267Z,652.50
2019-05-21T06:29:49.253Z,613.13
2019-05-21T06:30:49.250Z,534.38
2019-05-21T06:31:49.216Z,455.63
2019-05-21T06:32:49.192Z,348.75
2019-05-21T06:33:49.256Z,253.13
2019-05-21T06:34:49.151Z,185.63
2019-05-21T06:35:49.129Z,123.75
2019-05-21T06:36:49.119Z,95.63
2019-05-21T06:37:49.092Z,90.00
2019-05-21T06:38:49.075Z,84.38
2019-05-21T06:39:49.049Z,84.38
2019-05-21T06:40:49.030Z,84.38
2019-05-21T06:41:49.019Z,84.38
2019-05-21T06:42:49.033Z,90.00
2019-05-21T06:43:48.972Z,112.50
2019-05-21T06:44:48.955Z,129.38
2019-05-21T06:45:48.933Z,146.25
2019-05-21T06:46:48.917Z,129.38
2019-05-21T06:47:48.893Z,129.38
2019-05-21T06:48:48.868Z,118.13
2019-05-21T06:49:48.848Z,112.50
2019-05-21T06:50:48.827Z,101.25
2019-05-21T06:51:48.807Z,90.00
2019-05-21T06:52:48.786Z,101.25
2019-05-21T06:53:48.768Z,90.00
2019-05-21T06:54:48.748Z,90.00
2019-05-21T06:55:48.727Z,129.38
2019-05-21T06:56:48.708Z,163.13
2019-05-21T06:57:48.689Z,157.50
2019-05-21T06:58:48.666Z,146.25
2019-05-21T06:59:48.641Z,123.75
2019-05-21T07:00:48.625Z,106.88
2019-05-21T07:01:48.608Z,106.88
2019-05-21T07:02:48.585Z,129.38
2019-05-21T07:03:48.575Z,168.75
2019-05-21T07:04:48.540Z,213.75
2019-05-21T07:05:58.233Z,230.63
2019-05-21T07:06:48.497Z,230.63
2019-05-21T07:07:48.479Z,213.75
2019-05-21T07:08:48.456Z,225.00
2019-05-21T07:09:48.435Z,247.50
2019-05-21T07:10:48.416Z,275.63
2019-05-21T07:11:48.396Z,320.63
2019-05-21T07:12:48.378Z,365.63
2019-05-21T07:13:48.357Z,376.88
2019-05-21T07:14:48.331Z,376.88
2019-05-21T07:15:48.315Z,405.00
2019-05-21T07:16:48.293Z,444.38
2019-05-21T07:17:48.274Z,472.50
2019-05-21T07:18:48.249Z,483.75
2019-05-21T07:19:48.231Z,483.75
2019-05-21T07:20:48.222Z,483.75
2019-05-21T07:21:48.196Z,483.75
2019-05-21T07:22:48.294Z,489.38
2019-05-21T07:23:48.149Z,545.63
2019-05-21T07:24:48.128Z,601.88
2019-05-21T07:25:48.111Z,618.75
2019-05-21T07:26:48.087Z,573.75
2019-05-21T07:27:48.067Z,663.75
2019-05-21T07:28:48.088Z,1023.75
2019-05-21T07:29:48.028Z,1203.75
2019-05-21T07:30:48.009Z,1316.25
2019-05-21T07:31:47.995Z,1569.38
2019-05-21T07:32:47.972Z,1704.38
2019-05-21T07:33:47.946Z,1788.75
2019-05-21T07:34:47.933Z,1591.88
2019-05-21T07:35:47.916Z,1704.38
2019-05-21T07:36:47.898Z,1755.00
2019-05-21T07:37:47.877Z,1850.63
2019-05-21T07:38:53.144Z,2030.63
2019-05-21T07:39:47.835Z,2255.63
2019-05-21T07:40:47.818Z,1963.13
2019-05-21T07:41:47.804Z,1563.75
2019-05-21T07:42:47.788Z,1417.50
2019-05-21T07:43:47.767Z,1524.38
2019-05-21T07:44:47.753Z,2278.13
2019-05-21T07:45:47.731Z,2874.38
2019-05-21T07:46:47.714Z,3487.50
2019-05-21T07:47:47.723Z,4140.00
2019-05-21T07:48:47.693Z,4449.38
2019-05-21T07:49:47.667Z,4325.63
2019-05-21T07:50:47.708Z,3285.00
2019-05-21T07:51:47.636Z,2340.00
2019-05-21T07:52:47.627Z,2486.25
2019-05-21T07:53:47.612Z,2199.38
2019-05-21T07:54:47.595Z,1755.00
2019-05-21T07:55:47.587Z,3571.88
2019-05-21T07:56:47.569Z,3144.38
2019-05-21T07:57:47.550Z,4100.63
2019-05-21T07:58:47.542Z,4173.75
2019-05-21T07:59:47.533Z,4016.25
2019-05-21T08:00:47.521Z,4021.88
2019-05-21T08:01:47.505Z,3937.50
2019-05-21T08:02:47.496Z,4336.88
2019-05-21T08:03:47.483Z,4387.50
2019-05-21T08:04:47.473Z,4432.50
2019-05-21T08:05:47.457Z,2401.88
2019-05-21T08:06:47.453Z,1473.75
2019-05-21T08:07:47.439Z,4055.63
2019-05-21T08:08:47.431Z,3982.50
2019-05-21T08:09:47.417Z,2958.75
2019-05-21T08:10:47.403Z,2115.00
2019-05-21T08:11:47.532Z,3414.38
2019-05-21T08:12:47.382Z,1749.38
2019-05-21T08:13:47.372Z,1468.13
2019-05-21T08:14:47.362Z,1383.75
2019-05-21T08:15:47.353Z,1867.50
2019-05-21T08:16:47.341Z,1541.25
2019-05-21T08:17:47.328Z,1490.63
2019-05-21T08:18:47.333Z,1513.13
2019-05-21T08:19:47.306Z,1518.75
2019-05-21T08:20:47.301Z,1406.25
2019-05-21T08:21:47.284Z,1248.75
2019-05-21T08:22:47.270Z,1231.88
2019-05-21T08:23:47.258Z,1288.13
2019-05-21T08:24:47.251Z,1456.88
2019-05-21T08:25:47.282Z,2266.88
2019-05-21T08:26:47.223Z,2941.88
2019-05-21T08:27:47.209Z,1822.50
2019-05-21T08:28:47.203Z,1642.50
2019-05-21T08:29:47.192Z,2621.25
2019-05-21T08:30:47.182Z,2131.88
2019-05-21T08:31:47.187Z,2626.88
2019-05-21T08:32:47.147Z,2480.63
2019-05-21T08:33:47.138Z,4066.88
2019-05-21T08:34:47.127Z,1833.75
2019-05-21T08:35:47.114Z,1890.00
2019-05-21T08:36:47.105Z,2435.63
2019-05-21T08:37:47.108Z,1850.63
2019-05-21T08:38:47.081Z,1490.63
2019-05-21T08:39:47.066Z,1507.50
2019-05-21T08:40:47.053Z,1305.00
2019-05-21T08:41:47.044Z,1417.50
2019-05-21T08:42:47.028Z,1974.38
2019-05-21T08:43:47.022Z,3645.00
2019-05-21T08:44:47.002Z,1906.88
2019-05-21T08:45:46.995Z,3971.25
2019-05-21T08:46:46.982Z,4061.25
2019-05-21T08:47:46.969Z,1293.75
2019-05-21T08:48:46.958Z,1485.00
2019-05-21T08:49:46.947Z,1248.75
2019-05-21T08:50:46.933Z,1771.88
2019-05-21T08:51:46.920Z,1276.88
2019-05-21T08:52:46.911Z,1136.25
2019-05-21T08:53:46.937Z,1321.88
2019-05-21T08:54:46.887Z,4415.63
2019-05-21T08:55:46.924Z,1665.00
2019-05-21T08:56:46.860Z,1091.25
2019-05-21T08:58:05.074Z,1411.88
2019-05-21T08:58:46.834Z,4550.63
2019-05-21T08:59:46.825Z,1816.88
2019-05-21T09:00:46.818Z,1456.88
2019-05-21T09:01:46.802Z,4899.38
2019-05-21T09:02:46.793Z,1704.38
2019-05-21T09:03:46.781Z,1569.38
2019-05-21T09:04:46.928Z,1721.25
2019-05-21T09:05:46.755Z,1395.00
2019-05-21T09:06:46.743Z,1434.38
2019-05-21T09:07:52.878Z,2047.50
2019-05-21T09:08:46.715Z,1530.00
2019-05-21T09:09:50.455Z,1485.00
2019-05-21T09:10:46.690Z,1625.63
2019-05-21T09:11:46.686Z,1878.75
2019-05-21T09:12:46.671Z,3639.38
2019-05-21T09:13:46.655Z,1344.38
2019-05-21T09:14:46.647Z,4978.13
2019-05-21T09:15:46.638Z,5574.38
2019-05-21T09:16:46.630Z,5810.63
2019-05-21T09:17:46.611Z,4741.88
2019-05-21T09:18:46.601Z,2334.38
2019-05-21T09:19:46.583Z,2041.88
2019-05-21T09:20:46.569Z,2480.63
2019-05-21T09:21:46.560Z,2070.00
2019-05-21T09:22:46.547Z,5079.38
2019-05-21T09:23:46.541Z,2041.88
2019-05-21T09:24:46.529Z,1260.00
2019-05-21T09:25:49.411Z,1029.38
2019-05-21T09:26:46.501Z,978.75
2019-05-21T09:27:54.683Z,961.88
2019-05-21T09:29:47.573Z,1080.00
2019-05-21T09:30:46.532Z,1186.88
2019-05-21T09:32:32.253Z,1985.63
2019-05-21T09:33:40.426Z,2688.75
2019-05-21T09:35:32.753Z,5355.00
2019-05-21T09:36:25.432Z,5220.00
2019-05-21T09:37:32.248Z,3487.50
2019-05-21T09:39:26.161Z,2446.88
2019-05-21T09:40:25.129Z,2233.13
2019-05-21T09:42:10.875Z,1845.00
2019-05-21T09:43:10.826Z,2064.38
2019-05-21T09:44:10.813Z,1344.38
2019-05-21T09:45:10.803Z,1125.00
2019-05-21T09:46:10.790Z,995.63
2019-05-21T09:47:10.778Z,1186.88
2019-05-21T09:48:10.767Z,1923.75
2019-05-21T09:49:10.756Z,1878.75
2019-05-21T09:50:10.746Z,1867.50
2019-05-21T09:51:19.340Z,1732.50
2019-05-21T09:52:10.727Z,1693.13
2019-05-21T09:53:10.720Z,1816.88
2019-05-21T09:54:10.735Z,2790.00
2019-05-21T09:55:10.755Z,4145.63
2019-05-21T09:56:10.671Z,1350.00
2019-05-21T09:57:10.657Z,1080.00
2019-05-21T09:58:10.644Z,843.75
2019-05-21T09:59:10.632Z,669.38
2019-05-21T10:00:10.622Z,568.13
2019-05-21T10:01:10.613Z,523.13
2019-05-21T10:03:10.586Z,1170.00
2019-05-21T10:04:10.572Z,1400.63
2019-05-21T10:05:10.564Z,1226.25
2019-05-21T10:06:10.552Z,3481.88
2019-05-21T10:07:10.534Z,1395.00
2019-05-21T10:08:10.519Z,1192.50
2019-05-21T10:09:31.518Z,1085.63
2019-05-21T10:10:10.517Z,1102.50
2019-05-21T10:11:10.479Z,1119.38
2019-05-21T10:12:10.476Z,1186.88
2019-05-21T10:13:10.465Z,1237.50
2019-05-21T10:14:10.441Z,1552.50
2019-05-21T10:15:31.446Z,2283.75
2019-05-21T10:16:10.409Z,6221.25
2019-05-21T10:17:10.402Z,6165.00
2019-05-21T10:18:10.384Z,1614.38
2019-05-21T10:19:10.372Z,5034.38
2019-05-21T10:20:10.356Z,3684.38
2019-05-21T10:21:31.360Z,5602.50
2019-05-21T10:22:10.637Z,4106.25
2019-05-21T10:23:10.310Z,4865.63
2019-05-21T10:24:10.303Z,1490.63
2019-05-21T10:25:10.288Z,1085.63
2019-05-21T10:26:10.284Z,1012.50
2019-05-21T10:27:31.267Z,905.63
2019-05-21T10:28:10.254Z,810.00
2019-05-21T10:29:10.245Z,742.50
2019-05-21T10:30:10.298Z,708.75
2019-05-21T10:31:10.212Z,697.50
2019-05-21T10:32:10.198Z,697.50
2019-05-21T10:33:31.317Z,703.13
2019-05-21T10:34:12.710Z,731.25
2019-05-21T10:35:10.155Z,781.88
2019-05-21T10:36:10.143Z,838.13
2019-05-21T10:37:10.144Z,888.75
2019-05-21T10:38:10.121Z,916.88
2019-05-21T10:39:31.101Z,894.38
2019-05-21T10:40:10.096Z,838.13
2019-05-21T10:41:10.068Z,810.00
2019-05-21T10:42:10.061Z,798.75
2019-05-21T10:43:10.042Z,832.50
2019-05-21T10:44:10.034Z,984.38
2019-05-21T10:45:31.015Z,1271.25
2019-05-21T10:46:09.992Z,2446.88
2019-05-21T10:47:09.986Z,1642.50
2019-05-21T10:48:09.967Z,1445.63
2019-05-21T10:49:09.947Z,1248.75
2019-05-21T10:50:09.935Z,1096.88
2019-05-21T10:51:30.929Z,995.63
2019-05-21T10:52:09.904Z,877.50
2019-05-21T10:53:10.989Z,770.63
2019-05-21T10:54:09.927Z,708.75
2019-05-21T10:55:09.864Z,703.13
2019-05-21T10:56:17.015Z,748.13
2019-05-21T10:58:02.751Z,849.38
2019-05-21T10:59:02.710Z,866.25
2019-05-21T11:00:55.648Z,866.25
2019-05-21T11:01:55.593Z,871.88
2019-05-21T11:03:48.781Z,894.38
2019-05-21T11:04:48.762Z,900.00
2019-05-21T11:06:43.085Z,877.50
2019-05-21T11:07:43.053Z,871.88
2019-05-21T11:09:36.475Z,866.25
2019-05-21T11:10:36.413Z,866.25
2019-05-21T11:11:36.392Z,877.50
2019-05-21T11:12:36.393Z,894.38
2019-05-21T11:13:36.417Z,900.00
2019-05-21T11:14:36.347Z,894.38
2019-05-21T11:15:36.350Z,883.13
2019-05-21T11:16:36.326Z,871.88
2019-05-21T11:17:50.017Z,877.50
2019-05-21T11:18:36.281Z,849.38
2019-05-21T11:19:36.277Z,849.38
2019-05-21T11:20:36.248Z,821.25
2019-05-21T11:21:36.242Z,832.50
2019-05-21T11:22:36.220Z,804.38
2019-05-21T11:23:36.240Z,765.00
2019-05-21T11:24:36.195Z,765.00
2019-05-21T11:25:36.170Z,826.88
2019-05-21T11:26:36.157Z,720.00
2019-05-21T11:27:36.184Z,736.88
2019-05-21T11:28:36.122Z,821.25
2019-05-21T11:29:36.101Z,798.75
2019-05-21T11:30:36.076Z,736.88
2019-05-21T11:31:36.076Z,624.38
2019-05-21T11:32:36.940Z,697.50
2019-05-21T11:33:36.048Z,911.25
2019-05-21T11:34:36.026Z,1023.75
2019-05-21T11:35:36.423Z,1074.38
2019-05-21T11:36:35.974Z,1102.50
2019-05-21T11:37:35.997Z,1108.13
2019-05-21T11:38:40.168Z,1063.13
2019-05-21T11:39:35.925Z,1147.50
2019-05-21T11:40:35.942Z,1282.50
2019-05-21T11:41:35.931Z,1282.50
2019-05-21T11:42:35.883Z,1507.50
2019-05-21T11:43:35.882Z,1608.75
2019-05-21T11:44:35.852Z,2160.00
2019-05-21T11:45:35.836Z,2154.38
2019-05-21T11:46:35.829Z,2058.75
2019-05-21T11:47:35.778Z,2711.25
2019-05-21T11:48:35.806Z,2002.50
2019-05-21T11:49:35.903Z,1974.38
2019-05-21T11:50:35.752Z,1861.88
2019-05-21T11:51:35.737Z,1856.25
2019-05-21T11:52:35.736Z,1811.25
2019-05-21T11:53:35.704Z,1760.63
2019-05-21T11:54:35.685Z,1755.00
2019-05-21T11:55:35.655Z,1659.38
2019-05-21T11:56:36.434Z,1558.13
2019-05-21T11:57:35.652Z,1479.38
2019-05-21T11:58:39.626Z,1440.00
2019-05-21T11:59:35.610Z,1282.50
2019-05-21T12:00:35.597Z,1085.63
2019-05-21T12:01:35.627Z,1153.13
2019-05-21T12:02:35.584Z,1203.75
2019-05-21T12:03:35.529Z,1141.88
2019-05-21T12:04:35.515Z,1220.63
2019-05-21T12:05:35.524Z,1305.00
2019-05-21T12:06:35.497Z,1153.13
2019-05-21T12:07:35.461Z,1102.50
2019-05-21T12:08:35.444Z,1001.25
2019-05-21T12:09:35.428Z,978.75
2019-05-21T12:10:35.449Z,978.75
2019-05-21T12:11:35.438Z,1130.63
2019-05-21T12:12:35.384Z,1085.63
2019-05-21T12:13:35.398Z,1170.00
2019-05-21T12:14:35.363Z,1310.63
2019-05-21T12:15:35.335Z,1288.13
2019-05-21T12:16:35.313Z,1260.00
2019-05-21T12:17:35.313Z,1164.38
2019-05-21T12:18:35.286Z,1175.63
2019-05-21T12:19:35.321Z,1282.50
2019-05-21T12:20:37.340Z,1310.63
2019-05-21T12:21:35.280Z,1181.25
2019-05-21T12:22:35.273Z,1209.38
2019-05-21T12:23:35.218Z,1215.00
2019-05-21T12:24:35.224Z,1276.88
2019-05-21T12:25:35.169Z,1344.38
2019-05-21T12:26:35.164Z,1361.25
2019-05-21T12:27:35.140Z,1305.00
2019-05-21T12:28:35.136Z,1327.50
2019-05-21T12:29:35.116Z,1485.00
2019-05-21T12:30:35.081Z,1552.50
2019-05-21T12:31:35.066Z,1575.00
2019-05-21T12:32:35.064Z,1473.75
2019-05-21T12:33:35.324Z,1276.88
2019-05-21T12:34:38.753Z,1141.88
2019-05-21T12:35:35.030Z,1113.75
2019-05-21T12:36:35.020Z,1215.00
2019-05-21T12:37:34.986Z,1158.75
2019-05-21T12:38:34.967Z,1096.88
2019-05-21T12:39:34.945Z,1434.38
2019-05-21T12:40:34.943Z,911.25
2019-05-21T12:41:34.986Z,860.63
2019-05-21T12:42:34.923Z,950.63
2019-05-21T12:43:34.925Z,1535.63
2019-05-21T12:44:34.886Z,2396.25
2019-05-21T12:45:34.866Z,1895.63
2019-05-21T12:46:34.842Z,2300.63
2019-05-21T12:47:34.816Z,3166.88
2019-05-21T12:48:34.796Z,2401.88
2019-05-21T12:49:34.801Z,2041.88